Campton, NH (03223)

12:05 PM EDT on May 25, 2015 (GMT -0400)
Mount Weetamoo | | Change Station
CLOSE
Current Station
Personal Weather Station
Location: Campton, NH
Elevation: 1801 ft
Nearby Weather Stations

Elev 1801 ft 43.86 °N, 71.60 °W | Updated 8 minutes ago

Overcast
Overcast
67.4 °F
Feels Like 67.4 °F
N
4.0
Wind Variable Wind from WNW
Gusts 5.0 mph

Today
High -- | Low -- °F
--% Chance of Precip.
Yesterday
High -- | Low -- °F
Precip. -- in
5:11 AM 8:15 PM
Waxing Crescent, 49% visible
Pressure 30.20 in
Visibility 10.0 miles
Clouds Scattered Clouds 10000 ft
Dew Point 53 °F
Humidity 60%
Rainfall 0.00 in
Snow Depth Not available.
UV 9 out of 12
Pollen 4.60 out of 12
Air Quality Not available.
Flu Activity Sporadic
METAR K1P1 251555Z AUTO 00000KT 10SM SCT100 23/12 A3020 RMK AO2 T02300121

More Conditions Fewer Conditions

Pressure 30.20 in
Visibility 10.0 miles
Clouds Scattered Clouds 10000 ft
Dew Point 53 °F
Humidity 60%
Rainfall 0.00 in
Snow Depth Not available.
UV 9 out of 12
Pollen 4.60 out of 12
Air Quality Not available.
Flu Activity Sporadic
METAR K1P1 251555Z AUTO 00000KT 10SM SCT100 23/12 A3020 RMK AO2 T02300121

More Conditions Fewer Conditions

10-Day Weather Forecast

Almanac

Astronomy

May. 25, 2015 Rise Set
Actual Time
Civil Twilight
Nautical Twilight
Astronomical Twilight
Moon
Length of Visible Light
Length of Day
Tomorrow will be .
, % of the Moon is Illuminated

Today's Extremes

State Highs State Lows

Community

WunderPhotos

Upload Photos

1,824,033 photos uploaded!

WunderBlogs® & News

Nearby

Air Quality

  Air Quality AQ Index Pollutant
Not available.

Snow Depth

Station Depth Elevation

Earthquake Activity

City Distance Mag. Time & Date
Minimum magnitude displayed is 2.5.

Coastal Water Temperatures

Place Temperature

Stations

Nearby Weather Stations

Station Location Temp. Windchill Dew Point Humidity Wind Precip. Elev Updated Type